sensor_id;sensor_type;location;lat;lon;timestamp;P1;durP1;ratioP1;P2;durP2;ratioP2
13432;SDS011;6789;47.678;9.158;2023-08-21T00:03:51;8.82;;;6.15;;
13432;SDS011;6789;47.678;9.158;2023-08-21T00:08:43;8.48;;;6.20;;
13432;SDS011;6789;47.678;9.158;2023-08-21T00:13:35;6.43;;;5.80;;
13432;SDS011;6789;47.678;9.158;2023-08-21T00:18:27;6.75;;;5.68;;
13432;SDS011;6789;47.678;9.158;2023-08-21T00:23:18;10.32;;;5.93;;
13432;SDS011;6789;47.678;9.158;2023-08-21T00:28:10;6.97;;;6.28;;
13432;SDS011;6789;47.678;9.158;2023-08-21T00:33:03;7.97;;;5.80;;
13432;SDS011;6789;47.678;9.158;2023-08-21T00:37:55;9.48;;;6.35;;
13432;SDS011;6789;47.678;9.158;2023-08-21T00:42:46;7.57;;;6.13;;
13432;SDS011;6789;47.678;9.158;2023-08-21T00:47:38;9.13;;;6.60;;
13432;SDS011;6789;47.678;9.158;2023-08-21T00:52:31;7.20;;;5.88;;
13432;SDS011;6789;47.678;9.158;2023-08-21T00:57:23;8.15;;;6.80;;
13432;SDS011;6789;47.678;9.158;2023-08-21T01:02:15;8.57;;;6.28;;
13432;SDS011;6789;47.678;9.158;2023-08-21T01:07:07;7.72;;;6.38;;
13432;SDS011;6789;47.678;9.158;2023-08-21T01:12:04;7.13;;;6.07;;
13432;SDS011;6789;47.678;9.158;2023-08-21T01:17:13;7.30;;;5.97;;
13432;SDS011;6789;47.678;9.158;2023-08-21T01:22:09;8.27;;;6.28;;
13432;SDS011;6789;47.678;9.158;2023-08-21T01:27:01;7.93;;;6.95;;
13432;SDS011;6789;47.678;9.158;2023-08-21T01:37:12;10.52;;;6.68;;
13432;SDS011;6789;47.678;9.158;2023-08-21T01:42:05;7.28;;;6.53;;
13432;SDS011;6789;47.678;9.158;2023-08-21T01:46:56;7.80;;;6.68;;
13432;SDS011;6789;47.678;9.158;2023-08-21T01:51:48;7.65;;;6.85;;
13432;SDS011;6789;47.678;9.158;2023-08-21T01:56:40;7.72;;;6.93;;
13432;SDS011;6789;47.678;9.158;2023-08-21T02:01:32;7.07;;;6.38;;
13432;SDS011;6789;47.678;9.158;2023-08-21T02:06:25;8.40;;;6.95;;
13432;SDS011;6789;47.678;9.158;2023-08-21T02:11:16;10.30;;;7.18;;
13432;SDS011;6789;47.678;9.158;2023-08-21T02:16:08;7.05;;;6.30;;
13432;SDS011;6789;47.678;9.158;2023-08-21T02:21:00;8.35;;;6.65;;
13432;SDS011;6789;47.678;9.158;2023-08-21T02:25:53;8.00;;;7.00;;
13432;SDS011;6789;47.678;9.158;2023-08-21T02:30:45;8.80;;;7.57;;
13432;SDS011;6789;47.678;9.158;2023-08-21T02:35:37;7.70;;;6.90;;
13432;SDS011;6789;47.678;9.158;2023-08-21T02:40:28;8.52;;;7.10;;
13432;SDS011;6789;47.678;9.158;2023-08-21T02:45:20;8.50;;;7.40;;
13432;SDS011;6789;47.678;9.158;2023-08-21T02:50:12;8.45;;;7.47;;
13432;SDS011;6789;47.678;9.158;2023-08-21T02:55:04;9.98;;;8.23;;
13432;SDS011;6789;47.678;9.158;2023-08-21T02:59:57;10.68;;;7.72;;
13432;SDS011;6789;47.678;9.158;2023-08-21T03:04:49;7.70;;;6.97;;
13432;SDS011;6789;47.678;9.158;2023-08-21T03:09:41;8.60;;;7.70;;
13432;SDS011;6789;47.678;9.158;2023-08-21T03:14:33;8.38;;;7.47;;
13432;SDS011;6789;47.678;9.158;2023-08-21T03:19:25;9.38;;;7.88;;
13432;SDS011;6789;47.678;9.158;2023-08-21T03:24:17;8.20;;;7.38;;
13432;SDS011;6789;47.678;9.158;2023-08-21T03:29:09;10.15;;;7.57;;
13432;SDS011;6789;47.678;9.158;2023-08-21T03:34:01;7.88;;;7.07;;
13432;SDS011;6789;47.678;9.158;2023-08-21T03:38:53;8.85;;;7.95;;
13432;SDS011;6789;47.678;9.158;2023-08-21T03:43:45;10.75;;;8.27;;
13432;SDS011;6789;47.678;9.158;2023-08-21T03:48:36;11.25;;;8.10;;
13432;SDS011;6789;47.678;9.158;2023-08-21T03:53:28;10.57;;;8.27;;
13432;SDS011;6789;47.678;9.158;2023-08-21T03:58:20;10.68;;;8.35;;
13432;SDS011;6789;47.678;9.158;2023-08-21T04:03:12;10.50;;;8.20;;
13432;SDS011;6789;47.678;9.158;2023-08-21T04:08:03;10.85;;;8.02;;
13432;SDS011;6789;47.678;9.158;2023-08-21T04:12:56;11.07;;;8.45;;
13432;SDS011;6789;47.678;9.158;2023-08-21T04:17:47;9.63;;;8.23;;
13432;SDS011;6789;47.678;9.158;2023-08-21T04:22:39;10.43;;;8.82;;
13432;SDS011;6789;47.678;9.158;2023-08-21T04:27:32;9.30;;;8.30;;
13432;SDS011;6789;47.678;9.158;2023-08-21T04:32:24;10.68;;;8.60;;
13432;SDS011;6789;47.678;9.158;2023-08-21T04:37:16;10.38;;;8.73;;
13432;SDS011;6789;47.678;9.158;2023-08-21T04:42:07;9.73;;;8.73;;
13432;SDS011;6789;47.678;9.158;2023-08-21T04:47:18;19.50;;;9.65;;
13432;SDS011;6789;47.678;9.158;2023-08-21T04:52:20;37.05;;;11.10;;
13432;SDS011;6789;47.678;9.158;2023-08-21T04:57:13;12.38;;;8.35;;
13432;SDS011;6789;47.678;9.158;2023-08-21T05:02:07;9.65;;;8.10;;
13432;SDS011;6789;47.678;9.158;2023-08-21T05:06:59;10.52;;;8.85;;
13432;SDS011;6789;47.678;9.158;2023-08-21T05:11:51;8.88;;;7.85;;
13432;SDS011;6789;47.678;9.158;2023-08-21T05:16:43;10.48;;;8.80;;
13432;SDS011;6789;47.678;9.158;2023-08-21T05:21:35;11.23;;;8.38;;
13432;SDS011;6789;47.678;9.158;2023-08-21T05:26:26;13.25;;;7.70;;
13432;SDS011;6789;47.678;9.158;2023-08-21T05:31:18;9.82;;;8.00;;
13432;SDS011;6789;47.678;9.158;2023-08-21T05:36:10;9.73;;;7.75;;
13432;SDS011;6789;47.678;9.158;2023-08-21T05:41:02;12.95;;;7.15;;
13432;SDS011;6789;47.678;9.158;2023-08-21T05:45:58;11.23;;;7.43;;
13432;SDS011;6789;47.678;9.158;2023-08-21T05:50:52;9.30;;;7.20;;
13432;SDS011;6789;47.678;9.158;2023-08-21T05:55:45;11.45;;;7.85;;
13432;SDS011;6789;47.678;9.158;2023-08-21T06:00:38;12.18;;;9.82;;
13432;SDS011;6789;47.678;9.158;2023-08-21T06:05:30;14.95;;;10.30;;
13432;SDS011;6789;47.678;9.158;2023-08-21T06:10:22;15.70;;;10.82;;
13432;SDS011;6789;47.678;9.158;2023-08-21T06:15:14;11.60;;;7.90;;
13432;SDS011;6789;47.678;9.158;2023-08-21T06:20:06;9.70;;;7.57;;
13432;SDS011;6789;47.678;9.158;2023-08-21T06:24:59;7.97;;;7.18;;
13432;SDS011;6789;47.678;9.158;2023-08-21T06:29:51;9.30;;;8.40;;
13432;SDS011;6789;47.678;9.158;2023-08-21T06:35:09;9.85;;;7.80;;
13432;SDS011;6789;47.678;9.158;2023-08-21T06:40:01;7.53;;;5.45;;
13432;SDS011;6789;47.678;9.158;2023-08-21T06:44:54;8.32;;;6.95;;
13432;SDS011;6789;47.678;9.158;2023-08-21T06:49:46;8.73;;;7.82;;
13432;SDS011;6789;47.678;9.158;2023-08-21T06:54:38;10.27;;;7.72;;
13432;SDS011;6789;47.678;9.158;2023-08-21T06:59:30;11.10;;;7.15;;
13432;SDS011;6789;47.678;9.158;2023-08-21T07:04:24;8.00;;;7.07;;
13432;SDS011;6789;47.678;9.158;2023-08-21T07:09:18;9.60;;;6.90;;
13432;SDS011;6789;47.678;9.158;2023-08-21T07:14:10;9.25;;;7.88;;
13432;SDS011;6789;47.678;9.158;2023-08-21T07:19:04;9.07;;;7.22;;
13432;SDS011;6789;47.678;9.158;2023-08-21T07:23:56;10.07;;;7.22;;
13432;SDS011;6789;47.678;9.158;2023-08-21T07:28:48;9.93;;;7.07;;
13432;SDS011;6789;47.678;9.158;2023-08-21T07:33:39;9.50;;;7.78;;
13432;SDS011;6789;47.678;9.158;2023-08-21T07:38:31;9.13;;;8.07;;
13432;SDS011;6789;47.678;9.158;2023-08-21T07:43:23;11.77;;;7.20;;
13432;SDS011;6789;47.678;9.158;2023-08-21T07:48:15;9.32;;;7.20;;
13432;SDS011;6789;47.678;9.158;2023-08-21T07:53:07;8.90;;;7.07;;
13432;SDS011;6789;47.678;9.158;2023-08-21T07:57:59;8.13;;;6.78;;
13432;SDS011;6789;47.678;9.158;2023-08-21T08:02:53;8.30;;;7.25;;
13432;SDS011;6789;47.678;9.158;2023-08-21T08:07:45;9.48;;;6.78;;
13432;SDS011;6789;47.678;9.158;2023-08-21T08:12:36;8.35;;;6.85;;
13432;SDS011;6789;47.678;9.158;2023-08-21T08:17:32;7.53;;;6.43;;
13432;SDS011;6789;47.678;9.158;2023-08-21T08:22:24;10.90;;;7.47;;
13432;SDS011;6789;47.678;9.158;2023-08-21T08:27:16;7.97;;;7.15;;
13432;SDS011;6789;47.678;9.158;2023-08-21T08:32:09;11.23;;;7.03;;
13432;SDS011;6789;47.678;9.158;2023-08-21T08:37:15;9.38;;;6.68;;
13432;SDS011;6789;47.678;9.158;2023-08-21T08:42:47;12.07;;;7.53;;
13432;SDS011;6789;47.678;9.158;2023-08-21T08:48:32;10.32;;;7.47;;
13432;SDS011;6789;47.678;9.158;2023-08-21T08:53:25;8.80;;;6.82;;
13432;SDS011;6789;47.678;9.158;2023-08-21T08:58:35;10.02;;;7.57;;
13432;SDS011;6789;47.678;9.158;2023-08-21T09:03:41;11.77;;;7.15;;
13432;SDS011;6789;47.678;9.158;2023-08-21T09:08:57;15.40;;;7.78;;
13432;SDS011;6789;47.678;9.158;2023-08-21T09:14:03;7.90;;;7.10;;
13432;SDS011;6789;47.678;9.158;2023-08-21T09:18:56;8.27;;;6.90;;
13432;SDS011;6789;47.678;9.158;2023-08-21T09:24:02;10.13;;;7.28;;
13432;SDS011;6789;47.678;9.158;2023-08-21T09:29:14;9.68;;;7.13;;
13432;SDS011;6789;47.678;9.158;2023-08-21T09:34:20;10.02;;;6.95;;
13432;SDS011;6789;47.678;9.158;2023-08-21T09:39:15;9.32;;;8.27;;
13432;SDS011;6789;47.678;9.158;2023-08-21T09:44:09;11.52;;;7.07;;
13432;SDS011;6789;47.678;9.158;2023-08-21T09:49:01;10.35;;;7.05;;
13432;SDS011;6789;47.678;9.158;2023-08-21T09:53:54;11.82;;;8.13;;
13432;SDS011;6789;47.678;9.158;2023-08-21T09:58:49;9.55;;;7.18;;
13432;SDS011;6789;47.678;9.158;2023-08-21T10:03:57;7.70;;;6.90;;
13432;SDS011;6789;47.678;9.158;2023-08-21T10:09:08;9.25;;;7.10;;
13432;SDS011;6789;47.678;9.158;2023-08-21T10:14:15;10.70;;;8.05;;
13432;SDS011;6789;47.678;9.158;2023-08-21T10:19:23;8.90;;;7.65;;
13432;SDS011;6789;47.678;9.158;2023-08-21T10:24:44;8.30;;;7.50;;
13432;SDS011;6789;47.678;9.158;2023-08-21T10:29:58;10.77;;;8.30;;
13432;SDS011;6789;47.678;9.158;2023-08-21T10:35:06;10.57;;;7.78;;
13432;SDS011;6789;47.678;9.158;2023-08-21T10:40:22;10.00;;;7.75;;
13432;SDS011;6789;47.678;9.158;2023-08-21T10:45:29;11.10;;;7.75;;
13432;SDS011;6789;47.678;9.158;2023-08-21T10:51:33;8.35;;;7.22;;
13432;SDS011;6789;47.678;9.158;2023-08-21T10:56:43;8.40;;;7.60;;
13432;SDS011;6789;47.678;9.158;2023-08-21T11:01:51;9.85;;;7.45;;
13432;SDS011;6789;47.678;9.158;2023-08-21T11:06:59;9.18;;;8.27;;
13432;SDS011;6789;47.678;9.158;2023-08-21T11:12:07;12.57;;;7.57;;
13432;SDS011;6789;47.678;9.158;2023-08-21T11:17:54;12.45;;;8.30;;
13432;SDS011;6789;47.678;9.158;2023-08-21T11:22:49;9.70;;;8.00;;
13432;SDS011;6789;47.678;9.158;2023-08-21T11:27:47;8.70;;;7.60;;
13432;SDS011;6789;47.678;9.158;2023-08-21T11:32:39;13.25;;;7.60;;
13432;SDS011;6789;47.678;9.158;2023-08-21T11:37:45;13.10;;;6.60;;
13432;SDS011;6789;47.678;9.158;2023-08-21T11:42:37;7.38;;;6.32;;
13432;SDS011;6789;47.678;9.158;2023-08-21T11:47:43;8.63;;;6.90;;
13432;SDS011;6789;47.678;9.158;2023-08-21T11:52:52;11.02;;;6.65;;
13432;SDS011;6789;47.678;9.158;2023-08-21T11:57:49;7.15;;;5.93;;
13432;SDS011;6789;47.678;9.158;2023-08-21T12:03:00;7.90;;;6.13;;
13432;SDS011;6789;47.678;9.158;2023-08-21T12:08:18;7.20;;;5.22;;
13432;SDS011;6789;47.678;9.158;2023-08-21T12:13:13;7.72;;;5.75;;
13432;SDS011;6789;47.678;9.158;2023-08-21T12:18:04;5.45;;;4.90;;
13432;SDS011;6789;47.678;9.158;2023-08-21T12:22:56;9.45;;;5.45;;
13432;SDS011;6789;47.678;9.158;2023-08-21T12:27:48;7.43;;;5.00;;
13432;SDS011;6789;47.678;9.158;2023-08-21T12:32:54;6.20;;;5.10;;
13432;SDS011;6789;47.678;9.158;2023-08-21T12:37:58;6.70;;;5.15;;
13432;SDS011;6789;47.678;9.158;2023-08-21T12:42:50;7.22;;;4.70;;
13432;SDS011;6789;47.678;9.158;2023-08-21T12:47:56;7.53;;;5.07;;
13432;SDS011;6789;47.678;9.158;2023-08-21T12:53:12;5.10;;;4.57;;
13432;SDS011;6789;47.678;9.158;2023-08-21T12:58:18;6.57;;;4.57;;
13432;SDS011;6789;47.678;9.158;2023-08-21T13:03:25;8.63;;;4.97;;
13432;SDS011;6789;47.678;9.158;2023-08-21T13:08:20;6.00;;;4.78;;
13432;SDS011;6789;47.678;9.158;2023-08-21T13:13:12;8.15;;;5.15;;
13432;SDS011;6789;47.678;9.158;2023-08-21T13:18:06;7.32;;;5.20;;
13432;SDS011;6789;47.678;9.158;2023-08-21T13:23:13;6.45;;;5.20;;
13432;SDS011;6789;47.678;9.158;2023-08-21T13:28:06;7.25;;;5.40;;
13432;SDS011;6789;47.678;9.158;2023-08-21T13:33:13;7.18;;;5.15;;
13432;SDS011;6789;47.678;9.158;2023-08-21T13:38:35;7.10;;;5.20;;
13432;SDS011;6789;47.678;9.158;2023-08-21T13:43:51;4.82;;;4.40;;
13432;SDS011;6789;47.678;9.158;2023-08-21T13:48:59;7.28;;;4.40;;
13432;SDS011;6789;47.678;9.158;2023-08-21T13:54:33;5.40;;;4.70;;
13432;SDS011;6789;47.678;9.158;2023-08-21T13:59:25;5.63;;;4.25;;
13432;SDS011;6789;47.678;9.158;2023-08-21T14:04:17;7.70;;;4.72;;
13432;SDS011;6789;47.678;9.158;2023-08-21T14:09:08;8.35;;;5.00;;
13432;SDS011;6789;47.678;9.158;2023-08-21T14:14:25;5.20;;;4.68;;
13432;SDS011;6789;47.678;9.158;2023-08-21T14:19:17;6.55;;;4.43;;
13432;SDS011;6789;47.678;9.158;2023-08-21T14:24:54;6.43;;;4.90;;
13432;SDS011;6789;47.678;9.158;2023-08-21T14:30:04;6.55;;;4.38;;
13432;SDS011;6789;47.678;9.158;2023-08-21T14:35:31;6.45;;;4.45;;
13432;SDS011;6789;47.678;9.158;2023-08-21T14:41:01;10.05;;;4.90;;
13432;SDS011;6789;47.678;9.158;2023-08-21T14:45:54;6.72;;;4.20;;
13432;SDS011;6789;47.678;9.158;2023-08-21T14:50:46;6.72;;;4.45;;
13432;SDS011;6789;47.678;9.158;2023-08-21T14:55:37;6.40;;;4.30;;
13432;SDS011;6789;47.678;9.158;2023-08-21T15:00:29;4.65;;;4.18;;
13432;SDS011;6789;47.678;9.158;2023-08-21T15:05:36;6.90;;;4.50;;
13432;SDS011;6789;47.678;9.158;2023-08-21T15:10:28;4.25;;;3.78;;
13432;SDS011;6789;47.678;9.158;2023-08-21T15:16:06;5.30;;;4.10;;
13432;SDS011;6789;47.678;9.158;2023-08-21T15:20:58;5.43;;;4.00;;
13432;SDS011;6789;47.678;9.158;2023-08-21T15:26:54;7.47;;;3.67;;
13432;SDS011;6789;47.678;9.158;2023-08-21T15:32:05;6.65;;;4.15;;
13432;SDS011;6789;47.678;9.158;2023-08-21T15:36:57;6.63;;;3.95;;
13432;SDS011;6789;47.678;9.158;2023-08-21T15:41:49;5.47;;;4.07;;
13432;SDS011;6789;47.678;9.158;2023-08-21T15:47:51;5.95;;;3.95;;
13432;SDS011;6789;47.678;9.158;2023-08-21T15:53:09;8.82;;;4.50;;
13432;SDS011;6789;47.678;9.158;2023-08-21T15:58:53;6.07;;;3.95;;
13432;SDS011;6789;47.678;9.158;2023-08-21T16:04:00;5.22;;;3.80;;
13432;SDS011;6789;47.678;9.158;2023-08-21T16:08:52;7.25;;;3.70;;
13432;SDS011;6789;47.678;9.158;2023-08-21T16:20:42;7.85;;;3.63;;
13432;SDS011;6789;47.678;9.158;2023-08-21T16:25:34;4.25;;;3.50;;
13432;SDS011;6789;47.678;9.158;2023-08-21T16:30:26;7.30;;;3.60;;
13432;SDS011;6789;47.678;9.158;2023-08-21T16:35:18;6.20;;;3.65;;
13432;SDS011;6789;47.678;9.158;2023-08-21T16:46:50;6.13;;;3.20;;
13432;SDS011;6789;47.678;9.158;2023-08-21T16:52:42;6.30;;;3.10;;
13432;SDS011;6789;47.678;9.158;2023-08-21T16:57:50;4.05;;;3.20;;
13432;SDS011;6789;47.678;9.158;2023-08-21T17:02:44;6.53;;;3.35;;
13432;SDS011;6789;47.678;9.158;2023-08-21T17:07:45;6.57;;;3.00;;
13432;SDS011;6789;47.678;9.158;2023-08-21T17:12:56;5.55;;;3.58;;
13432;SDS011;6789;47.678;9.158;2023-08-21T17:17:48;5.25;;;2.97;;
13432;SDS011;6789;47.678;9.158;2023-08-21T17:22:40;4.28;;;2.75;;
13432;SDS011;6789;47.678;9.158;2023-08-21T17:27:31;6.70;;;2.85;;
13432;SDS011;6789;47.678;9.158;2023-08-21T17:32:23;5.75;;;3.05;;
13432;SDS011;6789;47.678;9.158;2023-08-21T17:37:15;6.88;;;3.22;;
13432;SDS011;6789;47.678;9.158;2023-08-21T17:42:08;6.90;;;3.20;;
13432;SDS011;6789;47.678;9.158;2023-08-21T17:47:01;4.38;;;3.50;;
13432;SDS011;6789;47.678;9.158;2023-08-21T17:51:53;4.95;;;3.45;;
13432;SDS011;6789;47.678;9.158;2023-08-21T17:56:44;6.00;;;4.10;;
13432;SDS011;6789;47.678;9.158;2023-08-21T18:02:41;5.97;;;3.85;;
13432;SDS011;6789;47.678;9.158;2023-08-21T18:07:33;7.35;;;3.80;;
13432;SDS011;6789;47.678;9.158;2023-08-21T18:12:25;4.07;;;3.65;;
13432;SDS011;6789;47.678;9.158;2023-08-21T18:17:41;7.15;;;3.92;;
13432;SDS011;6789;47.678;9.158;2023-08-21T18:23:23;5.55;;;3.97;;
13432;SDS011;6789;47.678;9.158;2023-08-21T18:28:18;9.25;;;4.20;;
13432;SDS011;6789;47.678;9.158;2023-08-21T18:33:13;6.30;;;4.32;;
13432;SDS011;6789;47.678;9.158;2023-08-21T18:38:05;6.20;;;4.10;;
13432;SDS011;6789;47.678;9.158;2023-08-21T18:42:58;7.78;;;4.38;;
13432;SDS011;6789;47.678;9.158;2023-08-21T18:47:50;10.38;;;4.80;;
13432;SDS011;6789;47.678;9.158;2023-08-21T18:52:56;6.72;;;4.90;;
13432;SDS011;6789;47.678;9.158;2023-08-21T18:58:11;6.85;;;4.60;;
13432;SDS011;6789;47.678;9.158;2023-08-21T19:08:06;7.80;;;5.00;;
13432;SDS011;6789;47.678;9.158;2023-08-21T19:13:24;9.00;;;4.28;;
13432;SDS011;6789;47.678;9.158;2023-08-21T19:18:15;7.47;;;4.05;;
13432;SDS011;6789;47.678;9.158;2023-08-21T19:35:21;4.78;;;4.18;;
13432;SDS011;6789;47.678;9.158;2023-08-21T20:36:55;6.38;;;4.72;;
13432;SDS011;6789;47.678;9.158;2023-08-21T20:41:49;5.88;;;4.93;;
13432;SDS011;6789;47.678;9.158;2023-08-21T20:47:14;8.85;;;5.57;;
13432;SDS011;6789;47.678;9.158;2023-08-21T20:52:51;5.55;;;4.55;;
13432;SDS011;6789;47.678;9.158;2023-08-21T20:57:57;6.30;;;4.63;;
13432;SDS011;6789;47.678;9.158;2023-08-21T21:02:49;6.63;;;4.60;;
13432;SDS011;6789;47.678;9.158;2023-08-21T21:20:56;7.43;;;5.00;;
13432;SDS011;6789;47.678;9.158;2023-08-21T21:26:03;7.13;;;5.10;;
13432;SDS011;6789;47.678;9.158;2023-08-21T21:31:10;7.47;;;5.15;;
13432;SDS011;6789;47.678;9.158;2023-08-21T21:36:15;7.72;;;5.10;;
13432;SDS011;6789;47.678;9.158;2023-08-21T21:41:22;6.55;;;4.70;;
13432;SDS011;6789;47.678;9.158;2023-08-21T21:46:28;10.98;;;5.40;;
13432;SDS011;6789;47.678;9.158;2023-08-21T21:51:35;5.97;;;4.55;;
13432;SDS011;6789;47.678;9.158;2023-08-21T21:56:43;5.10;;;4.50;;
13432;SDS011;6789;47.678;9.158;2023-08-21T22:23:24;7.97;;;4.97;;
13432;SDS011;6789;47.678;9.158;2023-08-21T22:28:20;6.20;;;5.40;;
13432;SDS011;6789;47.678;9.158;2023-08-21T22:33:12;5.63;;;4.82;;
13432;SDS011;6789;47.678;9.158;2023-08-21T22:38:04;8.77;;;5.40;;
13432;SDS011;6789;47.678;9.158;2023-08-21T22:42:56;6.63;;;5.35;;
13432;SDS011;6789;47.678;9.158;2023-08-21T22:47:48;7.10;;;5.13;;
13432;SDS011;6789;47.678;9.158;2023-08-21T22:52:40;7.70;;;5.53;;
13432;SDS011;6789;47.678;9.158;2023-08-21T23:03:06;7.03;;;5.15;;
13432;SDS011;6789;47.678;9.158;2023-08-21T23:07:58;11.07;;;6.03;;
13432;SDS011;6789;47.678;9.158;2023-08-21T23:12:50;6.30;;;5.07;;
13432;SDS011;6789;47.678;9.158;2023-08-21T23:17:42;8.55;;;5.50;;
13432;SDS011;6789;47.678;9.158;2023-08-21T23:22:34;9.05;;;5.38;;
13432;SDS011;6789;47.678;9.158;2023-08-21T23:27:26;6.68;;;5.03;;
13432;SDS011;6789;47.678;9.158;2023-08-21T23:32:19;8.20;;;6.05;;
13432;SDS011;6789;47.678;9.158;2023-08-21T23:37:11;8.45;;;5.72;;
13432;SDS011;6789;47.678;9.158;2023-08-21T23:42:02;7.18;;;5.53;;
13432;SDS011;6789;47.678;9.158;2023-08-21T23:46:55;9.25;;;5.90;;
13432;SDS011;6789;47.678;9.158;2023-08-21T23:51:46;8.55;;;6.35;;
13432;SDS011;6789;47.678;9.158;2023-08-21T23:56:38;10.25;;;6.18;;
